createdAt,value
2023-08-25T00:00:27.295Z,101405.78
2023-08-25T00:03:14.446Z,101414.78
2023-08-25T00:06:01.565Z,101400.19
2023-08-25T00:08:49.441Z,101408.88
2023-08-25T00:11:36.385Z,101406.19
2023-08-25T00:14:23.308Z,101403.19
2023-08-25T00:17:10.270Z,101413.41
2023-08-25T00:19:57.167Z,101411.78
2023-08-25T00:22:44.196Z,101413.53
2023-08-25T00:25:31.286Z,101380.06
2023-08-25T00:28:18.351Z,101420.81
2023-08-25T00:31:05.382Z,101418.13
2023-08-25T00:33:52.508Z,101415.44
2023-08-25T00:36:39.416Z,101427.91
2023-08-25T00:39:26.495Z,101417.25
2023-08-25T00:42:15.615Z,101397.81
2023-08-25T00:45:04.974Z,101424.28
2023-08-25T00:47:52.435Z,101410.38
2023-08-25T00:50:39.755Z,101432.13
2023-08-25T00:53:27.418Z,101410.06
2023-08-25T00:59:02.122Z,101420.28
2023-08-25T01:01:49.253Z,101414.25
2023-08-25T01:04:36.323Z,101418.56
2023-08-25T01:07:23.811Z,101411.56
2023-08-25T01:10:10.926Z,101416.66
2023-08-25T01:13:30.933Z,101404.47
2023-08-25T01:16:17.978Z,101408.75
2023-08-25T01:19:06.030Z,101414.25
2023-08-25T01:21:56.683Z,101414.47
2023-08-25T01:24:34.464Z,101412.75
2023-08-25T01:27:01.888Z,101398.88
2023-08-25T01:29:29.045Z,101415.22
2023-08-25T01:31:57.806Z,101392.66
2023-08-25T01:34:25.684Z,101410.59
2023-08-25T01:37:24.678Z,101410.59
2023-08-25T01:39:56.067Z,101411.44
2023-08-25T01:42:25.466Z,101398.31
2023-08-25T01:44:55.039Z,101385.53
2023-08-25T01:47:26.405Z,101376.06
2023-08-25T01:49:54.316Z,101407.16
2023-08-25T01:52:22.334Z,101406.72
2023-08-25T01:54:53.534Z,101410.19
2023-08-25T01:57:21.004Z,101409.19
2023-08-25T01:59:48.024Z,101411.78
2023-08-25T02:02:15.108Z,101374.66
2023-08-25T02:04:42.141Z,101418.03
2023-08-25T02:07:09.174Z,101405.00
2023-08-25T02:09:36.589Z,101399.53
2023-08-25T02:12:03.679Z,101414.56
2023-08-25T02:14:30.596Z,101411.16
2023-08-25T02:16:57.527Z,101386.41
2023-08-25T02:19:24.692Z,101410.19
2023-08-25T02:21:54.086Z,101415.56
2023-08-25T02:24:21.143Z,101399.53
2023-08-25T02:26:48.318Z,101413.72
2023-08-25T02:29:15.638Z,101421.69
2023-08-25T02:31:42.930Z,101424.28
2023-08-25T02:34:10.086Z,101423.41
2023-08-25T02:36:37.214Z,101426.03
2023-08-25T02:39:04.520Z,101426.91
2023-08-25T02:41:31.540Z,101406.06
2023-08-25T02:43:58.545Z,101428.72
2023-08-25T02:46:25.498Z,101422.44
2023-08-25T02:48:53.852Z,101420.63
2023-08-25T02:51:20.902Z,101414.34
2023-08-25T02:53:47.788Z,101412.09
2023-08-25T02:56:14.805Z,101418.03
2023-08-25T02:58:41.773Z,101418.03
2023-08-25T03:01:13.531Z,101415.56
2023-08-25T03:03:41.164Z,101422.53
2023-08-25T03:06:08.348Z,101427.91
2023-08-25T03:08:35.983Z,101413.09
2023-08-25T03:11:04.311Z,101417.38
2023-08-25T03:16:03.109Z,101350.47
2023-08-25T03:18:31.336Z,101415.56
2023-08-25T03:21:18.397Z,101397.59
2023-08-25T03:24:05.348Z,101424.28
2023-08-25T03:26:53.189Z,101407.28
2023-08-25T03:29:40.219Z,101430.94
2023-08-25T03:32:27.108Z,101391.66
2023-08-25T03:35:14.163Z,101390.38
2023-08-25T03:38:01.890Z,101404.28
2023-08-25T03:40:49.117Z,101433.94
2023-08-25T03:43:36.068Z,101425.38
2023-08-25T03:46:22.963Z,101430.75
2023-08-25T03:49:10.067Z,101424.59
2023-08-25T03:51:57.115Z,101437.06
2023-08-25T03:54:44.268Z,101413.72
2023-08-25T03:57:31.632Z,101434.38
2023-08-25T04:00:18.912Z,101384.44
2023-08-25T04:03:05.924Z,101419.66
2023-08-25T04:05:54.209Z,101434.94
2023-08-25T04:08:41.294Z,101439.44
2023-08-25T04:11:28.262Z,101366.06
2023-08-25T04:14:16.325Z,101435.03
2023-08-25T04:17:03.698Z,101436.84
2023-08-25T04:19:51.992Z,101440.19
2023-08-25T04:22:38.975Z,101427.50
2023-08-25T04:25:26.222Z,101450.09
2023-08-25T04:28:13.754Z,101458.16
2023-08-25T04:31:00.875Z,101456.34
2023-08-25T04:33:54.586Z,101459.03
2023-08-25T04:36:41.701Z,101406.50
2023-08-25T04:39:28.816Z,101429.75
2023-08-25T04:42:15.766Z,101453.53
2023-08-25T04:45:02.805Z,101440.63
2023-08-25T04:47:50.406Z,101431.81
2023-08-25T04:50:37.349Z,101450.19
2023-08-25T04:53:24.482Z,101451.84
2023-08-25T04:56:11.385Z,101446.78
2023-08-25T04:58:58.388Z,101453.44
2023-08-25T05:01:25.542Z,101457.00
2023-08-25T05:03:54.777Z,101456.25
2023-08-25T05:06:22.304Z,101459.59
2023-08-25T05:08:49.253Z,101464.97
2023-08-25T05:11:17.341Z,101456.78
2023-08-25T05:13:44.526Z,101425.03
2023-08-25T05:16:18.995Z,101464.75
2023-08-25T05:19:06.673Z,101463.88
2023-08-25T05:21:35.074Z,101460.22
2023-08-25T05:24:26.389Z,101463.78
2023-08-25T05:26:55.920Z,101457.41
2023-08-25T05:29:25.480Z,101453.34
2023-08-25T05:31:54.207Z,101445.38
2023-08-25T05:34:50.376Z,101454.94
2023-08-25T05:37:17.493Z,101449.44
2023-08-25T05:39:44.655Z,101450.31
2023-08-25T05:42:11.654Z,101438.16
2023-08-25T05:44:38.676Z,101450.09
2023-08-25T05:47:07.330Z,101444.59
2023-08-25T05:49:35.356Z,101422.25
2023-08-25T05:52:04.411Z,101438.16
2023-08-25T05:54:31.425Z,101444.28
2023-08-25T05:56:59.966Z,101402.97
2023-08-25T05:59:26.994Z,101447.75
2023-08-25T06:01:54.918Z,101444.94
2023-08-25T06:04:22.162Z,101364.88
2023-08-25T06:06:49.160Z,101421.03
2023-08-25T06:09:18.830Z,101457.22
2023-08-25T06:11:46.181Z,101453.59
2023-08-25T06:14:13.326Z,101453.59
2023-08-25T06:16:40.878Z,101439.47
2023-08-25T06:19:08.621Z,101452.38
2023-08-25T06:21:36.545Z,101447.88
2023-08-25T06:24:04.440Z,101453.78
2023-08-25T06:26:31.582Z,101445.06
2023-08-25T06:28:58.567Z,101456.13
2023-08-25T06:31:25.767Z,101445.06
2023-08-25T06:33:53.028Z,101400.78
2023-08-25T06:36:20.060Z,101451.41
2023-08-25T06:38:56.309Z,101456.78
2023-08-25T06:41:24.682Z,101454.84
2023-08-25T06:43:52.441Z,101449.81
2023-08-25T06:46:19.496Z,101454.84
2023-08-25T06:48:46.807Z,101458.19
2023-08-25T06:51:14.004Z,101461.84
2023-08-25T06:53:41.364Z,101461.84
2023-08-25T06:56:08.325Z,101442.56
2023-08-25T06:58:38.120Z,101461.63
2023-08-25T07:01:05.760Z,101469.59
2023-08-25T07:03:35.035Z,101466.06
2023-08-25T07:06:02.650Z,101461.41
2023-08-25T07:08:29.767Z,101467.53
2023-08-25T07:10:57.211Z,101471.00
2023-08-25T07:13:24.393Z,101466.56
2023-08-25T07:15:52.020Z,101457.31
2023-08-25T07:18:19.173Z,101460.84
2023-08-25T07:20:46.258Z,101456.31
2023-08-25T07:23:13.266Z,101395.44
2023-08-25T07:25:44.779Z,101458.03
2023-08-25T07:28:12.651Z,101457.19
2023-08-25T07:30:40.108Z,101423.50
2023-08-25T07:33:08.543Z,101456.22
2023-08-25T07:35:36.664Z,101457.09
2023-08-25T07:38:04.854Z,101466.00
2023-08-25T07:40:33.247Z,101465.06
2023-08-25T07:43:04.952Z,101461.59
2023-08-25T07:45:32.483Z,101423.19
2023-08-25T07:48:01.128Z,101461.16
2023-08-25T07:50:29.704Z,101460.47
2023-08-25T07:52:57.285Z,101460.25
2023-08-25T07:55:24.470Z,101462.13
2023-08-25T07:57:52.594Z,101461.56
2023-08-25T08:00:20.544Z,101438.28
2023-08-25T08:02:48.507Z,101476.91
2023-08-25T08:05:20.065Z,101477.41
2023-08-25T08:07:51.260Z,101480.66
2023-08-25T08:10:19.639Z,101482.16
2023-08-25T08:12:47.493Z,101485.47
2023-08-25T08:15:14.784Z,101489.78
2023-08-25T08:17:42.030Z,101467.06
2023-08-25T08:20:13.863Z,101477.91
2023-08-25T08:22:42.611Z,101485.44
2023-08-25T08:25:11.882Z,101451.75
2023-08-25T08:27:40.950Z,101476.03
2023-08-25T08:30:11.586Z,101470.03
2023-08-25T08:32:40.035Z,101479.13
2023-08-25T08:35:11.526Z,101486.25
2023-08-25T08:37:40.221Z,101486.03
2023-08-25T08:40:10.252Z,101487.63
2023-08-25T08:42:39.144Z,101480.41
2023-08-25T08:45:11.990Z,101483.00
2023-08-25T08:47:40.233Z,101478.31
2023-08-25T08:50:08.455Z,101488.16
2023-08-25T08:52:36.639Z,101484.59
2023-08-25T08:55:08.596Z,101481.66
2023-08-25T08:57:36.047Z,101484.00
2023-08-25T09:00:10.700Z,101487.34
2023-08-25T09:02:38.334Z,101493.97
2023-08-25T09:05:07.144Z,101444.47
2023-08-25T09:07:35.283Z,101494.13
2023-08-25T09:10:03.485Z,101490.22
2023-08-25T09:12:30.836Z,101443.66
2023-08-25T09:14:58.137Z,101496.00
2023-08-25T09:17:25.244Z,101494.06
2023-08-25T09:19:52.638Z,101493.59
2023-08-25T09:22:20.645Z,101470.25
2023-08-25T09:24:48.035Z,101495.81
2023-08-25T09:27:28.549Z,101494.69
2023-08-25T09:30:07.952Z,101493.81
2023-08-25T09:32:35.507Z,101499.97
2023-08-25T09:35:16.154Z,101493.81
2023-08-25T09:37:44.183Z,101490.41
2023-08-25T09:40:15.800Z,101486.34
2023-08-25T09:42:44.011Z,101487.09
2023-08-25T09:45:12.751Z,101451.97
2023-08-25T09:47:42.982Z,101494.00
2023-08-25T09:50:20.969Z,101491.94
2023-08-25T09:52:49.867Z,101488.00
2023-08-25T09:55:18.989Z,101492.44
2023-08-25T09:57:49.893Z,101491.56
2023-08-25T10:00:17.607Z,101483.34
2023-08-25T10:02:46.508Z,101460.72
2023-08-25T10:05:15.375Z,101462.13
2023-08-25T10:07:44.029Z,101481.38
2023-08-25T10:10:11.368Z,101476.38
2023-08-25T10:12:40.014Z,101476.13
2023-08-25T10:15:10.558Z,101467.88
2023-08-25T10:17:38.209Z,101466.06
2023-08-25T10:20:11.570Z,101470.22
2023-08-25T10:22:45.780Z,101460.78
2023-08-25T10:25:14.386Z,101478.69
2023-08-25T10:27:42.328Z,101466.66
2023-08-25T10:30:10.159Z,101473.41
2023-08-25T10:33:10.204Z,101468.84
2023-08-25T10:35:48.259Z,101467.28
2023-08-25T10:38:21.480Z,101463.69
2023-08-25T10:40:54.058Z,101467.16
2023-08-25T10:43:25.667Z,101456.34
2023-08-25T10:45:53.556Z,101469.84
2023-08-25T10:48:35.642Z,101470.53
2023-08-25T10:51:10.156Z,101462.06
2023-08-25T10:53:46.040Z,101464.38
2023-08-25T10:56:23.862Z,101460.50
2023-08-25T10:58:56.595Z,101457.53
2023-08-25T11:01:36.198Z,101458.28
2023-08-25T11:04:07.982Z,101460.59
2023-08-25T11:06:44.988Z,101452.09
2023-08-25T11:09:47.269Z,101457.38
2023-08-25T11:12:14.356Z,101438.84
2023-08-25T11:14:43.737Z,101445.19
2023-08-25T11:17:11.228Z,101448.63
2023-08-25T11:19:40.935Z,101444.53
2023-08-25T11:22:13.175Z,101439.47
2023-08-25T11:24:40.986Z,101439.97
2023-08-25T11:27:12.522Z,101437.00
2023-08-25T11:29:46.609Z,101418.97
2023-08-25T11:32:14.941Z,101433.16
2023-08-25T11:34:49.597Z,101435.47
2023-08-25T11:37:16.980Z,101432.50
2023-08-25T11:39:44.646Z,101416.53
2023-08-25T11:42:12.003Z,101421.41
2023-08-25T11:44:42.842Z,101395.28
2023-08-25T11:47:11.350Z,101440.78
2023-08-25T11:49:40.522Z,101438.09
2023-08-25T11:52:08.637Z,101411.25
2023-08-25T11:54:46.266Z,101439.91
2023-08-25T11:57:13.850Z,101443.22
2023-08-25T11:59:45.209Z,101422.38
2023-08-25T12:02:19.637Z,101441.38
2023-08-25T12:04:59.234Z,101446.53
2023-08-25T12:07:28.825Z,101449.84
2023-08-25T12:09:57.891Z,101452.28
2023-08-25T12:12:25.242Z,101402.47
2023-08-25T12:14:53.237Z,101449.75
2023-08-25T12:17:29.552Z,101368.66
2023-08-25T12:19:57.881Z,101449.81
2023-08-25T12:22:25.216Z,101447.41
2023-08-25T12:24:52.778Z,101446.72
2023-08-25T12:27:20.017Z,101447.88
2023-08-25T12:29:47.023Z,101444.91
2023-08-25T12:32:14.216Z,101442.06
2023-08-25T12:34:43.622Z,101441.91
2023-08-25T12:37:12.747Z,101447.06
2023-08-25T12:39:39.718Z,101440.53
2023-08-25T12:42:07.021Z,101436.81
2023-08-25T12:44:34.034Z,101446.28
2023-08-25T12:47:01.038Z,101372.25
2023-08-25T12:49:27.942Z,101442.41
2023-08-25T12:51:55.197Z,101414.53
2023-08-25T12:54:22.533Z,101446.97
2023-08-25T12:56:51.383Z,101388.25
2023-08-25T12:59:18.309Z,101434.84
2023-08-25T13:01:45.393Z,101449.13
2023-08-25T13:04:12.503Z,101443.69
2023-08-25T13:06:39.428Z,101443.09
2023-08-25T13:09:06.357Z,101444.94
2023-08-25T13:11:33.449Z,101443.66
2023-08-25T13:14:00.505Z,101445.63
2023-08-25T13:16:27.745Z,101457.22
2023-08-25T13:18:54.643Z,101448.22
2023-08-25T13:21:21.545Z,101443.06
2023-08-25T13:24:02.044Z,101450.19
2023-08-25T13:26:35.399Z,101440.03
2023-08-25T13:29:04.130Z,101438.75
2023-08-25T13:31:31.821Z,101438.69
2023-08-25T13:33:59.046Z,101461.97
2023-08-25T13:36:26.043Z,101462.34
2023-08-25T13:38:53.053Z,101462.19
2023-08-25T13:41:19.972Z,101461.44
2023-08-25T13:43:47.113Z,101420.66
2023-08-25T13:46:14.297Z,101462.84
2023-08-25T13:48:41.370Z,101441.38
2023-08-25T13:51:08.291Z,101470.84
2023-08-25T13:53:37.190Z,101465.56
2023-08-25T13:56:04.890Z,101471.09
2023-08-25T13:58:32.383Z,101469.63
2023-08-25T14:00:59.499Z,101476.31
2023-08-25T14:03:27.155Z,101473.69
2023-08-25T14:05:54.259Z,101476.16
2023-08-25T14:08:21.242Z,101480.97
2023-08-25T14:10:48.214Z,101471.91
2023-08-25T14:13:15.495Z,101478.47
2023-08-25T14:15:42.585Z,101489.63
2023-08-25T14:18:09.985Z,101484.34
2023-08-25T14:20:37.014Z,101488.16
2023-08-25T14:23:24.105Z,101500.09
2023-08-25T14:26:11.274Z,101493.97
2023-08-25T14:28:58.293Z,101489.31
2023-08-25T14:31:45.384Z,101490.06
2023-08-25T14:34:32.219Z,101466.53
2023-08-25T14:37:19.199Z,101496.50
2023-08-25T14:40:06.197Z,101493.31
2023-08-25T14:42:53.327Z,101487.31
2023-08-25T14:45:40.287Z,101486.59
2023-08-25T14:48:27.338Z,101437.03
2023-08-25T14:51:22.815Z,101490.91
2023-08-25T14:54:09.762Z,101492.53
2023-08-25T14:56:57.919Z,101467.84
2023-08-25T14:59:44.901Z,101495.13
2023-08-25T15:02:31.890Z,101491.22
2023-08-25T15:05:19.017Z,101483.09
2023-08-25T15:08:05.950Z,101493.91
2023-08-25T15:10:53.288Z,101462.38
2023-08-25T15:13:40.595Z,101501.41
2023-08-25T15:16:27.647Z,101501.53
2023-08-25T15:19:14.678Z,101500.66
2023-08-25T15:22:01.774Z,101497.13
2023-08-25T15:24:48.832Z,101500.06
2023-08-25T15:27:35.858Z,101429.09
2023-08-25T15:30:22.770Z,101501.78
2023-08-25T15:33:09.794Z,101500.31
2023-08-25T15:36:01.860Z,101493.41
2023-08-25T15:38:51.812Z,101473.66
2023-08-25T15:41:38.674Z,101481.28
2023-08-25T15:44:25.737Z,101486.81
2023-08-25T15:47:12.706Z,101480.41
2023-08-25T15:49:59.757Z,101489.25
2023-08-25T15:52:46.673Z,101454.63
2023-08-25T15:55:33.589Z,101483.97
2023-08-25T15:58:20.453Z,101487.81
2023-08-25T16:01:10.857Z,101484.22
2023-08-25T16:03:57.789Z,101461.53
2023-08-25T16:06:44.843Z,101490.13
2023-08-25T16:09:31.693Z,101497.63
2023-08-25T16:12:18.718Z,101469.63
2023-08-25T16:15:05.601Z,101466.31
2023-08-25T16:17:52.603Z,101471.72
2023-08-25T16:20:39.650Z,101477.50
2023-08-25T16:23:26.643Z,101478.44
2023-08-25T16:26:13.639Z,101463.59
2023-08-25T16:29:00.728Z,101471.56
2023-08-25T16:31:47.723Z,101476.34
2023-08-25T16:34:34.735Z,101480.66
2023-08-25T16:37:21.663Z,101479.44
2023-08-25T16:40:08.734Z,101468.63
2023-08-25T16:42:55.919Z,101475.03
2023-08-25T16:45:43.010Z,101478.94
2023-08-25T16:48:30.063Z,101483.72
2023-08-25T16:51:17.489Z,101492.44
2023-08-25T16:54:07.328Z,101463.06
2023-08-25T16:57:12.923Z,101481.59
2023-08-25T16:59:59.932Z,101497.22
2023-08-25T17:02:47.030Z,101487.41
2023-08-25T17:05:34.200Z,101482.97
2023-08-25T17:08:21.368Z,101489.56
2023-08-25T17:11:08.310Z,101493.53
2023-08-25T17:13:55.538Z,101488.25
2023-08-25T17:16:42.582Z,101488.00
2023-08-25T17:19:29.456Z,101489.88
2023-08-25T17:22:16.462Z,101491.81
2023-08-25T17:25:03.397Z,101431.97
2023-08-25T17:27:50.406Z,101488.94
2023-08-25T17:30:37.611Z,101491.13
2023-08-25T17:33:24.966Z,101469.16
2023-08-25T17:36:11.888Z,101495.56
2023-08-25T17:38:58.784Z,101448.38
2023-08-25T17:41:45.717Z,101485.47
2023-08-25T17:44:33.221Z,101470.38
2023-08-25T17:47:20.160Z,101497.94
2023-08-25T17:50:07.165Z,101493.66
2023-08-25T17:52:54.299Z,101481.97
2023-08-25T17:55:41.362Z,101488.22
2023-08-25T17:58:28.393Z,101480.38
2023-08-25T18:01:19.496Z,101500.53
2023-08-25T18:04:06.612Z,101488.56
2023-08-25T18:06:53.581Z,101506.88
2023-08-25T18:09:40.505Z,101511.63
2023-08-25T18:12:27.810Z,101514.13
2023-08-25T18:15:14.807Z,101514.13
2023-08-25T18:18:01.712Z,101499.72
2023-08-25T18:20:48.723Z,101503.41
2023-08-25T18:23:35.770Z,101499.72
2023-08-25T18:26:23.090Z,101478.44
2023-08-25T18:29:09.938Z,101514.53
2023-08-25T18:31:58.302Z,101519.72
2023-08-25T18:34:46.202Z,101516.38
2023-08-25T18:37:33.050Z,101497.78
2023-08-25T18:40:20.247Z,101518.91
2023-08-25T18:43:07.198Z,101521.22
2023-08-25T18:45:55.115Z,101486.97
2023-08-25T18:48:42.123Z,101510.97
2023-08-25T18:51:29.231Z,101456.72
2023-08-25T18:54:16.062Z,101492.50
2023-08-25T18:57:03.243Z,101518.78
2023-08-25T18:59:50.198Z,101514.56
2023-08-25T19:02:37.213Z,101510.59
2023-08-25T19:05:24.299Z,101522.25
2023-08-25T19:08:11.256Z,101514.28
2023-08-25T19:10:58.126Z,101497.50
2023-08-25T19:13:45.430Z,101506.13
2023-08-25T19:16:32.540Z,101476.09
2023-08-25T19:19:19.526Z,101512.44
2023-08-25T19:22:06.467Z,101503.22
2023-08-25T19:24:54.126Z,101495.47
2023-08-25T19:27:41.097Z,101506.56
2023-08-25T19:30:28.567Z,101512.19
2023-08-25T19:33:15.580Z,101506.47
2023-08-25T19:36:02.732Z,101518.97
2023-08-25T19:38:49.618Z,101478.63
2023-08-25T19:41:36.542Z,101499.19
2023-08-25T19:44:23.550Z,101510.78
2023-08-25T19:47:10.559Z,101507.25
2023-08-25T19:49:57.500Z,101511.88
2023-08-25T19:52:44.832Z,101490.34
2023-08-25T19:55:31.811Z,101514.03
2023-08-25T19:58:18.795Z,101486.38
2023-08-25T20:01:05.769Z,101513.31
2023-08-25T20:03:52.999Z,101506.63
2023-08-25T20:06:40.718Z,101524.41
2023-08-25T20:09:28.169Z,101452.03
2023-08-25T20:12:15.634Z,101514.91
2023-08-25T20:15:02.788Z,101524.97
2023-08-25T20:17:49.880Z,101522.38
2023-08-25T20:20:37.046Z,101507.50
2023-08-25T20:23:24.129Z,101526.13
2023-08-25T20:26:14.594Z,101521.19
2023-08-25T20:29:01.562Z,101522.50
2023-08-25T20:31:48.530Z,101407.50
2023-08-25T20:34:35.604Z,101500.59
2023-08-25T20:37:22.466Z,101454.63
2023-08-25T20:40:09.458Z,101512.59
2023-08-25T20:42:58.749Z,101470.34
2023-08-25T20:45:46.192Z,101523.88
2023-08-25T20:48:33.349Z,101527.53
2023-08-25T20:51:20.403Z,101521.28
2023-08-25T20:54:07.769Z,101519.69
2023-08-25T20:56:57.166Z,101513.66
2023-08-25T20:59:44.650Z,101527.31
2023-08-25T21:02:31.571Z,101531.16
2023-08-25T21:05:19.087Z,101526.97
2023-08-25T21:08:06.001Z,101522.00
2023-08-25T21:10:52.975Z,101534.28
2023-08-25T21:13:40.158Z,101529.84
2023-08-25T21:16:27.123Z,101533.72
2023-08-25T21:19:14.035Z,101471.25
2023-08-25T21:22:01.717Z,101535.97
2023-08-25T21:24:49.115Z,101527.91
2023-08-25T21:27:36.501Z,101537.59
2023-08-25T21:30:23.943Z,101540.38
2023-08-25T21:33:11.015Z,101499.22
2023-08-25T21:35:58.156Z,101529.78
2023-08-25T21:38:45.117Z,101559.31
2023-08-25T21:41:31.964Z,101552.22
2023-08-25T21:44:19.112Z,101499.28
2023-08-25T21:47:06.036Z,101547.03
2023-08-25T21:49:52.975Z,101555.22
2023-08-25T21:52:39.841Z,101550.69
2023-08-25T21:55:27.378Z,101558.09
2023-08-25T21:58:14.537Z,101553.13
2023-08-25T22:01:01.923Z,101489.56
2023-08-25T22:03:48.898Z,101542.34
2023-08-25T22:06:35.863Z,101548.38
2023-08-25T22:09:22.767Z,101560.56
2023-08-25T22:12:10.069Z,101573.59
2023-08-25T22:14:57.076Z,101565.53
2023-08-25T22:17:44.207Z,101537.81
2023-08-25T22:20:31.697Z,101565.53
2023-08-25T22:23:19.073Z,101544.94
2023-08-25T22:26:06.394Z,101550.84
2023-08-25T22:28:53.786Z,101563.97
2023-08-25T22:31:41.032Z,101559.47
2023-08-25T22:34:27.990Z,101559.47
2023-08-25T22:37:14.978Z,101555.19
2023-08-25T22:40:01.887Z,101550.31
2023-08-25T22:42:48.858Z,101557.81
2023-08-25T22:45:35.961Z,101563.28
2023-08-25T22:48:22.854Z,101559.84
2023-08-25T22:51:09.924Z,101561.78
2023-08-25T22:53:56.854Z,101558.44
2023-08-25T22:56:44.482Z,101553.34
2023-08-25T22:59:31.433Z,101562.16
2023-08-25T23:02:18.374Z,101551.81
2023-08-25T23:05:05.236Z,101551.91
2023-08-25T23:07:52.347Z,101555.47
2023-08-25T23:10:39.216Z,101561.41
2023-08-25T23:13:30.945Z,101553.25
2023-08-25T23:16:18.480Z,101539.84
2023-08-25T23:19:05.501Z,101542.25
2023-08-25T23:21:52.551Z,101553.66
2023-08-25T23:24:39.431Z,101558.94
2023-08-25T23:27:26.583Z,101561.63
2023-08-25T23:30:13.563Z,101546.00
2023-08-25T23:33:00.556Z,101477.88
2023-08-25T23:35:51.963Z,101553.66
2023-08-25T23:38:40.112Z,101551.91
2023-08-25T23:41:27.072Z,101539.38
2023-08-25T23:44:14.114Z,101556.66
2023-08-25T23:47:01.017Z,101554.91
2023-08-25T23:49:48.462Z,101523.16
2023-08-25T23:52:35.524Z,101558.78
2023-08-25T23:55:22.407Z,101562.44
2023-08-25T23:58:09.410Z,101559.75
